createdAt,value
2023-10-27T00:00:19.684Z,11.60
2023-10-27T00:02:55.404Z,13.73
2023-10-27T00:05:29.016Z,13.60
2023-10-27T00:08:02.480Z,13.80
2023-10-27T00:10:38.570Z,12.32
2023-10-27T00:13:11.994Z,13.98
2023-10-27T00:15:47.115Z,12.25
2023-10-27T00:18:23.054Z,13.52
2023-10-27T00:20:56.786Z,12.77
2023-10-27T00:23:30.594Z,13.85
2023-10-27T00:26:05.132Z,12.38
2023-10-27T00:28:38.260Z,15.35
2023-10-27T00:31:12.141Z,14.00
2023-10-27T00:33:47.244Z,13.65
2023-10-27T00:36:21.522Z,14.93
2023-10-27T00:38:54.773Z,13.27
2023-10-27T00:41:29.482Z,12.25
2023-10-27T00:44:03.419Z,12.73
2023-10-27T00:46:37.480Z,12.88
2023-10-27T00:49:13.620Z,11.93
2023-10-27T00:51:51.054Z,14.38
2023-10-27T00:54:25.622Z,12.57
2023-10-27T00:57:02.053Z,11.73
2023-10-27T00:59:37.211Z,13.68
2023-10-27T01:02:15.578Z,13.52
2023-10-27T01:04:54.556Z,13.65
2023-10-27T01:07:28.203Z,13.43
2023-10-27T01:10:01.802Z,14.18
2023-10-27T01:12:36.723Z,13.95
2023-10-27T01:15:12.360Z,13.70
2023-10-27T01:17:46.076Z,12.50
2023-10-27T01:20:21.121Z,12.43
2023-10-27T01:22:55.930Z,11.32
2023-10-27T01:25:29.419Z,13.75
2023-10-27T01:28:08.290Z,12.15
2023-10-27T01:30:46.099Z,13.02
2023-10-27T01:33:19.254Z,13.73
2023-10-27T01:35:54.625Z,11.18
2023-10-27T01:38:29.919Z,11.50
2023-10-27T01:41:03.398Z,12.25
2023-10-27T01:43:36.894Z,12.45
2023-10-27T01:46:10.595Z,12.32
2023-10-27T01:48:43.714Z,12.32
2023-10-27T01:56:24.900Z,11.55
2023-10-27T01:58:57.916Z,11.85
2023-10-27T02:01:30.996Z,11.73
2023-10-27T02:04:04.759Z,12.45
2023-10-27T02:06:38.007Z,11.93
2023-10-27T02:09:13.152Z,12.43
2023-10-27T02:11:47.714Z,10.43
2023-10-27T02:14:20.949Z,11.40
2023-10-27T02:16:54.246Z,11.88
2023-10-27T02:19:27.734Z,10.85
2023-10-27T02:22:02.038Z,10.88
2023-10-27T02:24:37.694Z,10.63
2023-10-27T02:27:11.116Z,11.10
2023-10-27T02:29:44.578Z,11.52
2023-10-27T02:32:18.190Z,10.13
2023-10-27T02:34:51.099Z,10.00
2023-10-27T02:37:24.248Z,10.38
2023-10-27T02:39:58.841Z,10.13
2023-10-27T02:42:32.348Z,10.23
2023-10-27T02:45:09.825Z,10.02
2023-10-27T02:47:43.823Z,10.73
2023-10-27T02:50:17.427Z,10.48
2023-10-27T02:52:50.476Z,10.77
2023-10-27T02:55:25.046Z,10.05
2023-10-27T02:57:59.947Z,9.93
2023-10-27T03:00:35.594Z,9.30
2023-10-27T03:03:11.158Z,9.15
2023-10-27T03:05:44.653Z,9.80
2023-10-27T03:08:17.947Z,9.63
2023-10-27T03:10:53.224Z,7.78
2023-10-27T03:13:26.690Z,8.02
2023-10-27T03:16:00.563Z,9.02
2023-10-27T03:18:34.039Z,8.55
2023-10-27T03:21:10.240Z,8.00
2023-10-27T03:23:43.813Z,7.80
2023-10-27T03:26:18.496Z,8.13
2023-10-27T03:28:51.540Z,8.43
2023-10-27T03:31:27.184Z,7.82
2023-10-27T03:34:00.983Z,7.72
2023-10-27T03:36:34.704Z,7.88
2023-10-27T03:39:08.343Z,7.55
2023-10-27T03:41:42.985Z,6.82
2023-10-27T03:44:17.676Z,7.60
2023-10-27T03:46:51.499Z,6.75
2023-10-27T03:49:24.527Z,6.43
2023-10-27T03:51:58.831Z,6.78
2023-10-27T03:54:32.144Z,6.43
2023-10-27T03:57:07.521Z,6.25
2023-10-27T03:59:40.784Z,6.20
2023-10-27T04:02:15.983Z,6.65
2023-10-27T04:04:49.174Z,6.50
2023-10-27T04:07:22.550Z,6.05
2023-10-27T04:09:55.632Z,5.95
2023-10-27T04:12:30.373Z,6.05
2023-10-27T04:15:04.007Z,6.72
2023-10-27T04:17:37.725Z,7.05
2023-10-27T04:20:12.006Z,6.47
2023-10-27T04:22:45.297Z,6.20
2023-10-27T04:25:18.739Z,5.15
2023-10-27T04:27:53.715Z,6.03
2023-10-27T04:30:27.665Z,5.32
2023-10-27T04:33:01.621Z,5.40
2023-10-27T04:35:34.812Z,5.30
2023-10-27T04:38:08.464Z,5.43
2023-10-27T04:40:41.980Z,5.28
2023-10-27T04:43:16.791Z,5.32
2023-10-27T04:45:50.193Z,5.68
2023-10-27T04:48:23.895Z,5.32
2023-10-27T04:51:00.340Z,5.55
2023-10-27T04:53:33.934Z,4.80
2023-10-27T04:56:08.541Z,4.95
2023-10-27T04:58:44.111Z,5.40
2023-10-27T05:01:17.861Z,4.30
2023-10-27T05:03:50.921Z,5.07
2023-10-27T05:06:24.653Z,4.07
2023-10-27T05:08:58.375Z,4.95
2023-10-27T05:11:32.253Z,4.85
2023-10-27T05:14:07.677Z,4.38
2023-10-27T05:16:40.981Z,4.40
2023-10-27T05:19:14.491Z,4.60
2023-10-27T05:21:47.500Z,3.78
2023-10-27T05:24:20.760Z,4.60
2023-10-27T05:26:54.843Z,4.18
2023-10-27T05:29:29.699Z,3.70
2023-10-27T05:32:02.816Z,3.80
2023-10-27T05:34:35.967Z,4.05
2023-10-27T05:37:09.244Z,4.53
2023-10-27T05:39:42.768Z,3.75
2023-10-27T05:42:17.070Z,4.40
2023-10-27T05:44:52.565Z,4.03
2023-10-27T05:47:25.867Z,4.45
2023-10-27T05:49:58.937Z,4.40
2023-10-27T05:52:32.258Z,3.83
2023-10-27T05:55:06.411Z,3.80
2023-10-27T05:57:39.762Z,4.65
2023-10-27T06:00:14.692Z,4.00
2023-10-27T06:02:49.927Z,3.83
2023-10-27T06:05:23.645Z,3.92
2023-10-27T06:07:57.083Z,3.35
2023-10-27T06:10:30.224Z,3.95
2023-10-27T06:13:04.462Z,3.50
2023-10-27T06:15:39.255Z,3.20
2023-10-27T06:18:13.010Z,3.40
2023-10-27T06:20:46.278Z,3.20
2023-10-27T06:23:19.521Z,3.53
2023-10-27T06:31:00.003Z,3.03
2023-10-27T06:33:34.196Z,3.50
2023-10-27T06:36:08.089Z,3.17
2023-10-27T06:38:41.578Z,3.17
2023-10-27T06:41:17.761Z,3.17
2023-10-27T06:43:51.285Z,3.30
2023-10-27T06:46:26.145Z,3.08
2023-10-27T06:48:59.611Z,3.22
2023-10-27T06:51:33.214Z,3.13
2023-10-27T06:54:06.855Z,3.13
2023-10-27T06:56:40.455Z,3.33
2023-10-27T06:59:13.498Z,3.78
2023-10-27T07:01:48.175Z,2.88
2023-10-27T07:04:21.848Z,3.42
2023-10-27T07:06:56.371Z,3.28
2023-10-27T07:09:29.824Z,2.92
2023-10-27T07:12:05.802Z,2.72
2023-10-27T07:14:39.376Z,2.80
2023-10-27T07:17:14.137Z,3.28
2023-10-27T07:19:47.911Z,2.97
2023-10-27T07:22:21.573Z,3.35
2023-10-27T07:24:54.940Z,3.10
2023-10-27T07:27:28.100Z,3.25
2023-10-27T07:30:01.105Z,3.10
2023-10-27T07:32:35.741Z,3.85
2023-10-27T07:35:09.539Z,3.05
2023-10-27T07:37:43.207Z,3.30
2023-10-27T07:40:19.307Z,3.67
2023-10-27T07:42:52.201Z,3.08
2023-10-27T07:45:26.407Z,3.60
2023-10-27T07:48:04.368Z,3.28
2023-10-27T07:50:37.514Z,4.30
2023-10-27T07:58:16.885Z,3.40
2023-10-27T08:05:58.604Z,4.30
2023-10-27T08:08:31.775Z,4.00
2023-10-27T08:11:05.852Z,3.70
2023-10-27T08:13:38.935Z,3.60
2023-10-27T08:16:13.628Z,4.63
2023-10-27T08:18:48.371Z,3.60
2023-10-27T08:21:21.358Z,3.92
2023-10-27T08:26:27.648Z,4.13
2023-10-27T08:29:00.648Z,4.82
2023-10-27T08:34:12.582Z,4.25
2023-10-27T08:36:46.807Z,3.75
2023-10-27T08:39:20.355Z,4.90
2023-10-27T08:41:53.852Z,4.70
2023-10-27T08:44:27.390Z,3.85
2023-10-27T08:47:00.507Z,3.78
2023-10-27T08:49:34.948Z,4.25
2023-10-27T08:52:10.097Z,4.43
2023-10-27T08:54:43.931Z,4.05
2023-10-27T08:57:17.393Z,4.60
2023-10-27T08:59:51.428Z,3.75
2023-10-27T09:02:31.895Z,3.85
2023-10-27T09:05:08.372Z,3.72
2023-10-27T09:07:41.583Z,2.80
2023-10-27T09:10:14.620Z,3.42
2023-10-27T09:12:49.056Z,2.90
2023-10-27T09:15:21.913Z,3.08
2023-10-27T09:17:56.324Z,3.33
2023-10-27T09:20:31.034Z,3.30
2023-10-27T09:23:06.472Z,2.80
2023-10-27T09:25:40.414Z,3.00
2023-10-27T09:28:13.555Z,3.83
2023-10-27T09:30:46.906Z,3.03
2023-10-27T09:33:22.020Z,2.88
2023-10-27T09:35:56.807Z,2.88
2023-10-27T09:38:30.059Z,3.22
2023-10-27T09:41:09.178Z,2.83
2023-10-27T09:43:43.608Z,2.95
2023-10-27T09:46:20.108Z,2.80
2023-10-27T09:49:12.296Z,2.65
2023-10-27T09:51:51.524Z,2.78
2023-10-27T09:54:25.204Z,3.22
2023-10-27T09:57:00.497Z,2.75
2023-10-27T09:59:36.275Z,3.95
2023-10-27T10:02:11.643Z,3.22
2023-10-27T10:05:04.559Z,3.97
2023-10-27T10:07:42.911Z,3.63
2023-10-27T10:10:34.316Z,3.30
2023-10-27T10:13:13.499Z,4.28
2023-10-27T10:15:48.592Z,4.03
2023-10-27T10:18:54.526Z,3.88
2023-10-27T10:21:37.281Z,3.63
2023-10-27T10:24:12.014Z,4.30
2023-10-27T10:27:16.853Z,4.03
2023-10-27T10:29:49.703Z,3.58
2023-10-27T10:32:40.056Z,3.65
2023-10-27T10:35:28.345Z,3.20
2023-10-27T10:38:40.364Z,3.05
2023-10-27T10:41:17.873Z,3.28
2023-10-27T10:44:14.808Z,3.38
2023-10-27T10:46:48.165Z,3.20
2023-10-27T10:49:25.720Z,3.30
2023-10-27T10:52:00.237Z,2.65
2023-10-27T10:54:34.676Z,2.90
2023-10-27T10:57:10.489Z,3.03
2023-10-27T10:59:54.446Z,3.45
2023-10-27T11:02:27.834Z,2.58
2023-10-27T11:05:01.459Z,2.90
2023-10-27T11:07:34.683Z,3.17
2023-10-27T11:10:22.608Z,2.80
2023-10-27T11:13:03.192Z,3.08
2023-10-27T11:15:49.174Z,3.00
2023-10-27T11:18:22.966Z,4.13
2023-10-27T11:20:56.568Z,4.35
2023-10-27T11:23:30.430Z,3.40
2023-10-27T11:26:05.630Z,4.63
2023-10-27T11:28:41.724Z,4.65
2023-10-27T11:31:20.808Z,3.85
2023-10-27T11:33:58.298Z,4.70
2023-10-27T11:36:33.222Z,4.78
2023-10-27T11:39:15.866Z,4.70
2023-10-27T11:41:51.312Z,4.38
2023-10-27T11:44:26.789Z,4.90
2023-10-27T11:47:02.118Z,5.53
2023-10-27T11:49:35.038Z,5.20
2023-10-27T11:54:41.581Z,5.72
2023-10-27T11:57:14.503Z,5.72
2023-10-27T12:02:26.878Z,6.40
2023-10-27T12:05:02.763Z,6.65
2023-10-27T12:07:37.507Z,6.20
2023-10-27T12:12:46.743Z,5.20
2023-10-27T12:15:23.160Z,5.50
2023-10-27T12:18:00.762Z,4.40
2023-10-27T12:20:40.940Z,4.72
2023-10-27T12:23:14.800Z,4.40
2023-10-27T12:25:48.734Z,4.32
2023-10-27T12:28:24.395Z,3.45
2023-10-27T12:31:01.351Z,3.72
2023-10-27T12:33:34.660Z,3.30
2023-10-27T12:36:10.468Z,3.67
2023-10-27T12:38:44.547Z,2.88
2023-10-27T12:41:17.920Z,3.22
2023-10-27T12:43:51.710Z,2.10
2023-10-27T12:46:26.307Z,2.22
2023-10-27T12:49:00.117Z,2.28
2023-10-27T12:51:33.814Z,2.22
2023-10-27T12:54:09.522Z,2.20
2023-10-27T12:56:43.596Z,1.98
2023-10-27T12:59:16.630Z,2.10
2023-10-27T13:01:51.749Z,1.65
2023-10-27T13:04:26.881Z,2.50
2023-10-27T13:07:00.100Z,1.75
2023-10-27T13:09:33.027Z,1.40
2023-10-27T13:14:42.882Z,1.73
2023-10-27T13:17:17.593Z,1.50
2023-10-27T13:19:50.781Z,2.00
2023-10-27T13:22:27.553Z,1.35
2023-10-27T13:25:01.290Z,1.50
2023-10-27T13:27:34.908Z,1.42
2023-10-27T13:30:08.881Z,1.15
2023-10-27T13:32:44.293Z,1.30
2023-10-27T13:35:17.439Z,0.90
2023-10-27T13:37:54.447Z,1.10
2023-10-27T13:40:28.051Z,1.23
2023-10-27T13:43:00.865Z,1.30
2023-10-27T13:45:34.153Z,1.20
2023-10-27T13:48:10.305Z,0.80
2023-10-27T13:50:44.750Z,0.70
2023-10-27T13:53:17.548Z,1.75
2023-10-27T13:55:50.826Z,1.17
2023-10-27T13:58:24.048Z,0.90
2023-10-27T14:00:56.788Z,1.30
2023-10-27T14:03:31.328Z,1.13
2023-10-27T14:06:05.009Z,0.80
2023-10-27T14:08:37.937Z,1.33
2023-10-27T14:11:11.177Z,1.02
2023-10-27T14:13:46.144Z,2.28
2023-10-27T14:16:19.646Z,1.00
2023-10-27T14:18:54.845Z,1.38
2023-10-27T14:21:28.236Z,0.82
2023-10-27T14:24:01.303Z,1.33
2023-10-27T14:26:35.618Z,2.22
2023-10-27T14:29:09.390Z,3.13
2023-10-27T14:31:42.396Z,3.00
2023-10-27T14:34:17.060Z,2.47
2023-10-27T14:36:50.607Z,2.38
2023-10-27T14:39:23.974Z,1.88
2023-10-27T14:41:56.950Z,1.73
2023-10-27T14:47:02.900Z,2.10
2023-10-27T14:49:39.510Z,1.55
2023-10-27T14:52:16.469Z,2.15
2023-10-27T14:54:50.046Z,2.30
2023-10-27T14:57:22.792Z,1.60
2023-10-27T14:59:55.918Z,1.67
2023-10-27T15:02:28.927Z,2.10
2023-10-27T15:07:36.338Z,1.38
2023-10-27T15:10:16.823Z,1.38
2023-10-27T15:12:49.861Z,0.93
2023-10-27T15:17:56.393Z,1.20
2023-10-27T15:20:31.159Z,1.33
2023-10-27T15:23:04.839Z,1.00
2023-10-27T15:25:40.724Z,1.40
2023-10-27T15:28:13.986Z,1.90
2023-10-27T15:30:47.447Z,2.00
2023-10-27T15:33:20.584Z,1.45
2023-10-27T15:35:58.972Z,1.35
2023-10-27T15:38:32.980Z,1.58
2023-10-27T15:41:07.761Z,1.25
2023-10-27T15:43:40.724Z,0.90
2023-10-27T15:48:47.033Z,1.25
2023-10-27T15:51:23.059Z,2.13
2023-10-27T15:53:57.702Z,1.45
2023-10-27T15:56:30.617Z,1.13
2023-10-27T16:01:37.749Z,1.80
2023-10-27T16:04:10.648Z,1.10
2023-10-27T16:09:35.458Z,1.60
2023-10-27T16:12:11.707Z,0.98
2023-10-27T16:14:45.043Z,0.95
2023-10-27T16:17:18.921Z,0.90
2023-10-27T16:19:52.488Z,1.10
2023-10-27T16:22:27.353Z,1.10
2023-10-27T16:25:00.434Z,0.73
2023-10-27T16:27:33.951Z,1.05
2023-10-27T16:30:09.262Z,0.60
2023-10-27T16:32:42.669Z,0.90
2023-10-27T16:35:16.320Z,0.70
2023-10-27T16:37:51.162Z,1.05
2023-10-27T16:40:28.358Z,1.30
2023-10-27T16:43:01.955Z,1.08
2023-10-27T16:45:35.176Z,0.80
2023-10-27T16:48:08.801Z,1.40
2023-10-27T16:50:49.074Z,1.25
2023-10-27T16:53:25.892Z,1.10
2023-10-27T16:55:59.182Z,1.10
2023-10-27T16:58:32.882Z,0.90
2023-10-27T17:01:07.803Z,0.80
2023-10-27T17:03:43.503Z,0.90
2023-10-27T17:06:17.270Z,1.17
2023-10-27T17:08:52.146Z,0.88
2023-10-27T17:11:25.595Z,0.80
2023-10-27T17:13:58.845Z,1.15
2023-10-27T17:16:31.838Z,1.27
2023-10-27T17:19:04.841Z,1.23
2023-10-27T17:21:38.694Z,1.17
2023-10-27T17:24:15.161Z,0.88
2023-10-27T17:26:47.996Z,1.40
2023-10-27T17:29:21.017Z,1.02
2023-10-27T17:34:26.637Z,1.30
2023-10-27T17:39:34.930Z,1.20
2023-10-27T17:42:07.832Z,1.55
2023-10-27T17:44:42.470Z,0.90
2023-10-27T17:47:15.681Z,1.00
2023-10-27T17:49:48.600Z,0.95
2023-10-27T17:54:59.267Z,0.90
2023-10-27T17:57:32.033Z,0.82
2023-10-27T18:00:08.378Z,1.10
2023-10-27T18:02:45.670Z,0.95
2023-10-27T18:07:53.128Z,1.10
2023-10-27T18:10:29.242Z,1.33
2023-10-27T18:13:02.138Z,1.17
2023-10-27T18:15:35.849Z,1.00
2023-10-27T18:18:11.510Z,0.93
2023-10-27T18:20:45.617Z,1.25
2023-10-27T18:23:18.433Z,0.80
2023-10-27T18:25:52.596Z,1.27
2023-10-27T18:28:25.383Z,1.55
2023-10-27T18:31:03.035Z,0.88
2023-10-27T18:33:35.915Z,1.00
2023-10-27T18:38:48.888Z,0.75
2023-10-27T18:41:23.783Z,1.23
2023-10-27T18:43:56.612Z,1.27
2023-10-27T18:46:29.829Z,1.55
2023-10-27T18:49:02.808Z,0.90
2023-10-27T18:54:16.979Z,1.02
2023-10-27T18:56:52.487Z,1.20
2023-10-27T18:59:28.296Z,1.10
2023-10-27T19:02:02.048Z,1.30
2023-10-27T19:04:46.557Z,1.10
2023-10-27T19:07:27.646Z,1.00
2023-10-27T19:10:03.341Z,1.02
2023-10-27T19:12:37.980Z,1.20
2023-10-27T19:15:13.853Z,1.25
2023-10-27T19:17:47.055Z,1.27
2023-10-27T19:22:52.699Z,1.27
2023-10-27T19:28:02.502Z,1.15
2023-10-27T19:30:35.469Z,1.17
2023-10-27T19:35:43.061Z,1.00
2023-10-27T19:38:15.899Z,1.20
2023-10-27T19:40:48.959Z,1.45
2023-10-27T19:43:23.880Z,1.38
2023-10-27T19:45:57.734Z,1.10
2023-10-27T19:48:32.239Z,1.20
2023-10-27T19:51:06.592Z,1.40
2023-10-27T19:53:40.835Z,1.17
2023-10-27T19:56:14.203Z,1.65
2023-10-27T19:58:49.439Z,1.35
2023-10-27T20:01:25.330Z,1.20
2023-10-27T20:04:00.216Z,1.13
2023-10-27T20:06:33.060Z,1.30
2023-10-27T20:09:06.685Z,1.55
2023-10-27T20:11:39.921Z,1.15
2023-10-27T20:14:14.212Z,1.23
2023-10-27T20:16:46.927Z,1.85
2023-10-27T20:19:19.820Z,1.05
2023-10-27T20:21:54.190Z,1.45
2023-10-27T20:24:26.886Z,1.77
2023-10-27T20:27:00.609Z,1.55
2023-10-27T20:29:34.723Z,1.90
2023-10-27T20:32:07.831Z,1.67
2023-10-27T20:34:41.170Z,1.40
2023-10-27T20:37:13.895Z,1.23
2023-10-27T20:39:46.942Z,1.17
2023-10-27T20:42:19.851Z,2.45
2023-10-27T20:44:54.032Z,1.15
2023-10-27T20:47:26.980Z,1.23
2023-10-27T20:52:32.642Z,1.67
2023-10-27T20:55:05.917Z,1.92
2023-10-27T20:57:38.704Z,1.70
2023-10-27T21:02:46.809Z,1.48
2023-10-27T21:07:52.769Z,1.90
2023-10-27T21:10:26.122Z,1.95
2023-10-27T21:12:58.868Z,1.73
2023-10-27T21:15:32.951Z,1.35
2023-10-27T21:18:05.804Z,1.33
2023-10-27T21:20:40.501Z,1.85
2023-10-27T21:23:13.444Z,1.80
2023-10-27T21:28:19.148Z,1.90
2023-10-27T21:30:53.918Z,1.98
2023-10-27T21:33:28.139Z,1.88
2023-10-27T21:36:00.927Z,1.50
2023-10-27T21:38:33.802Z,2.10
2023-10-27T21:41:07.090Z,1.92
2023-10-27T21:43:39.839Z,1.70
2023-10-27T21:46:13.951Z,2.17
2023-10-27T21:48:46.787Z,1.70
2023-10-27T21:51:19.537Z,1.88
2023-10-27T21:53:52.240Z,2.78
2023-10-27T21:56:25.313Z,1.75
2023-10-27T22:01:32.160Z,1.42
2023-10-27T22:04:19.413Z,1.85
2023-10-27T22:06:54.209Z,1.63
2023-10-27T22:09:27.755Z,1.85
2023-10-27T22:12:01.056Z,2.00
2023-10-27T22:14:34.153Z,2.08
2023-10-27T22:17:09.890Z,2.15
2023-10-27T22:19:42.779Z,2.40
2023-10-27T22:22:15.518Z,1.80
2023-10-27T22:24:48.291Z,2.28
2023-10-27T22:27:21.604Z,1.67
2023-10-27T22:29:54.672Z,2.03
2023-10-27T22:32:29.025Z,2.25
2023-10-27T22:35:03.370Z,2.30
2023-10-27T22:37:36.285Z,1.70
2023-10-27T22:40:09.969Z,2.28
2023-10-27T22:42:44.443Z,2.17
2023-10-27T22:45:17.550Z,2.50
2023-10-27T22:47:53.089Z,2.17
2023-10-27T22:50:26.242Z,2.10
2023-10-27T22:52:59.345Z,2.28
2023-10-27T22:55:32.230Z,2.30
2023-10-27T22:58:05.724Z,2.30
2023-10-27T23:00:38.457Z,2.53
2023-10-27T23:03:13.026Z,3.03
2023-10-27T23:05:45.857Z,2.50
2023-10-27T23:08:18.668Z,2.45
2023-10-27T23:10:52.505Z,2.67
2023-10-27T23:13:25.977Z,2.50
2023-10-27T23:16:01.407Z,2.40
2023-10-27T23:18:38.676Z,3.50
2023-10-27T23:21:13.175Z,3.22
2023-10-27T23:23:48.134Z,2.58
2023-10-27T23:26:21.131Z,3.20
2023-10-27T23:31:26.600Z,3.25
2023-10-27T23:34:00.740Z,3.47
2023-10-27T23:36:34.031Z,4.25
2023-10-27T23:39:06.893Z,3.83
2023-10-27T23:41:39.641Z,3.15
2023-10-27T23:44:13.237Z,3.95
2023-10-27T23:46:46.103Z,3.00
2023-10-27T23:51:54.479Z,3.10
2023-10-27T23:54:27.450Z,4.03
2023-10-27T23:59:33.209Z,3.50
